createdAt,value
2022-10-11T00:01:27.204Z,90.66
2022-10-11T00:03:55.806Z,92.19
2022-10-11T00:06:24.359Z,92.50
2022-10-11T00:08:53.011Z,91.92
2022-10-11T00:11:21.530Z,91.66
2022-10-11T00:13:50.071Z,91.37
2022-10-11T00:16:18.693Z,90.66
2022-10-11T00:18:47.380Z,91.45
2022-10-11T00:21:16.897Z,90.81
2022-10-11T00:23:45.488Z,92.91
2022-10-11T00:26:14.602Z,92.82
2022-10-11T00:28:43.396Z,92.20
2022-10-11T00:31:18.671Z,91.74
2022-10-11T00:33:47.322Z,91.85
2022-10-11T00:36:17.767Z,91.16
2022-10-11T00:38:46.877Z,91.25
2022-10-11T00:41:16.956Z,90.60
2022-10-11T00:43:46.084Z,91.17
2022-10-11T00:46:28.075Z,91.02
2022-10-11T00:49:03.251Z,91.12
2022-10-11T00:51:44.146Z,91.19
2022-10-11T00:54:17.235Z,91.19
2022-10-11T00:56:50.725Z,91.53
2022-10-11T00:59:25.240Z,91.96
2022-10-11T01:01:54.127Z,92.23
2022-10-11T01:05:11.637Z,92.94
2022-10-11T01:07:48.166Z,92.65
2022-10-11T01:10:18.555Z,91.93
2022-10-11T01:13:04.312Z,91.34
2022-10-11T01:16:11.807Z,91.27
2022-10-11T01:19:47.661Z,91.25
2022-10-11T01:22:37.361Z,91.80
2022-10-11T01:25:25.188Z,92.26
2022-10-11T01:28:41.823Z,92.11
2022-10-11T01:31:35.164Z,93.24
2022-10-11T01:34:41.076Z,94.49
2022-10-11T01:37:35.481Z,94.40
2022-10-11T01:40:37.303Z,93.32
2022-10-11T01:43:07.029Z,92.80
2022-10-11T01:45:36.588Z,92.82
2022-10-11T01:48:12.702Z,93.12
2022-10-11T01:50:52.157Z,92.71
2022-10-11T01:53:41.473Z,91.63
2022-10-11T01:56:38.907Z,90.98
2022-10-11T01:59:28.809Z,90.55
2022-10-11T02:02:18.687Z,90.78
2022-10-11T02:05:17.451Z,91.62
2022-10-11T02:07:56.880Z,91.24
2022-10-11T02:10:43.127Z,91.91
2022-10-11T02:13:31.819Z,92.63
2022-10-11T02:16:06.287Z,92.67
2022-10-11T02:18:44.067Z,92.81
2022-10-11T02:21:23.453Z,92.77
2022-10-11T02:24:10.599Z,92.70
2022-10-11T02:26:44.319Z,92.83
2022-10-11T02:29:17.097Z,92.53
2022-10-11T02:31:47.062Z,93.11
2022-10-11T02:34:26.042Z,93.68
2022-10-11T02:37:16.372Z,93.84
2022-10-11T02:40:03.474Z,93.82
2022-10-11T02:42:40.270Z,93.44
2022-10-11T02:45:20.435Z,93.55
2022-10-11T02:47:49.546Z,93.63
2022-10-11T02:50:18.226Z,94.06
2022-10-11T02:52:46.721Z,93.99
2022-10-11T02:55:15.249Z,93.34
2022-10-11T02:57:44.520Z,93.47
2022-10-11T03:00:14.388Z,93.83
2022-10-11T03:02:42.980Z,93.58
2022-10-11T03:05:11.601Z,93.60
2022-10-11T03:07:40.288Z,93.44
2022-10-11T03:10:09.590Z,93.28
2022-10-11T03:12:38.573Z,93.43
2022-10-11T03:15:07.768Z,93.96
2022-10-11T03:17:37.574Z,93.36
2022-10-11T03:20:07.791Z,93.80
2022-10-11T03:22:36.465Z,94.07
2022-10-11T03:25:05.537Z,94.18
2022-10-11T03:27:34.440Z,94.47
2022-10-11T03:30:05.490Z,94.31
2022-10-11T03:32:34.076Z,93.98
2022-10-11T03:35:03.151Z,94.33
2022-10-11T03:37:31.679Z,94.19
2022-10-11T03:40:00.236Z,94.45
2022-10-11T03:42:29.613Z,94.41
2022-10-11T03:45:00.038Z,93.69
2022-10-11T03:47:28.602Z,93.98
2022-10-11T03:49:57.142Z,94.71
2022-10-11T03:52:25.752Z,94.52
2022-10-11T03:54:54.210Z,94.57
2022-10-11T03:57:22.764Z,94.44
2022-10-11T03:59:51.354Z,94.84
2022-10-11T04:02:19.920Z,94.96
2022-10-11T04:04:48.559Z,95.20
2022-10-11T04:07:17.168Z,95.60
2022-10-11T04:09:45.748Z,95.13
2022-10-11T04:12:14.648Z,95.50
2022-10-11T04:14:43.185Z,95.66
2022-10-11T04:17:11.817Z,95.44
2022-10-11T04:19:40.309Z,95.30
2022-10-11T04:22:09.245Z,95.21
2022-10-11T04:24:37.758Z,95.09
2022-10-11T04:27:06.481Z,95.44
2022-10-11T04:29:35.084Z,96.27
2022-10-11T04:32:03.659Z,96.21
2022-10-11T04:34:32.255Z,95.55
2022-10-11T04:37:00.865Z,95.62
2022-10-11T04:39:29.497Z,95.48
2022-10-11T04:41:58.137Z,95.22
2022-10-11T04:44:26.704Z,94.97
2022-10-11T04:46:55.236Z,94.89
2022-10-11T04:49:24.350Z,94.47
2022-10-11T04:51:53.465Z,94.21
2022-10-11T04:54:22.323Z,93.99
2022-10-11T04:56:50.997Z,94.15
2022-10-11T04:59:19.629Z,93.76
2022-10-11T05:01:48.548Z,93.59
2022-10-11T05:04:17.172Z,93.20
2022-10-11T05:06:45.836Z,92.69
2022-10-11T05:09:14.494Z,93.59
2022-10-11T05:11:43.041Z,94.02
2022-10-11T05:14:11.686Z,94.39
2022-10-11T05:16:40.262Z,94.19
2022-10-11T05:19:08.869Z,94.02
2022-10-11T05:21:37.537Z,93.80
2022-10-11T05:24:07.064Z,93.72
2022-10-11T05:26:35.685Z,93.34
2022-10-11T05:29:04.329Z,92.99
2022-10-11T05:31:33.412Z,92.26
2022-10-11T05:34:01.973Z,91.70
2022-10-11T05:36:30.661Z,91.12
2022-10-11T05:38:59.266Z,90.10
2022-10-11T05:41:29.371Z,89.87
2022-10-11T05:43:57.930Z,89.58
2022-10-11T05:46:26.633Z,88.95
2022-10-11T05:48:55.171Z,87.78
2022-10-11T05:51:23.841Z,87.04
2022-10-11T05:53:52.991Z,85.88
2022-10-11T05:56:24.560Z,85.56
2022-10-11T05:58:57.530Z,85.28
2022-10-11T06:01:29.073Z,84.29
2022-10-11T06:03:58.127Z,83.76
2022-10-11T06:06:26.957Z,83.31
2022-10-11T06:08:55.629Z,82.93
2022-10-11T06:11:27.883Z,82.38
2022-10-11T06:13:58.323Z,81.90
2022-10-11T06:16:27.633Z,81.50
2022-10-11T06:18:57.637Z,81.17
2022-10-11T06:21:26.545Z,80.29
2022-10-11T06:24:00.858Z,79.71
2022-10-11T06:26:31.151Z,78.67
2022-10-11T06:29:00.947Z,78.18
2022-10-11T06:31:29.569Z,77.39
2022-10-11T06:34:00.178Z,77.14
2022-10-11T06:36:29.033Z,76.37
2022-10-11T06:38:57.777Z,75.78
2022-10-11T06:41:29.396Z,75.55
2022-10-11T06:43:58.357Z,75.17
2022-10-11T06:46:28.948Z,74.43
2022-10-11T06:48:57.502Z,74.74
2022-10-11T06:51:26.222Z,74.62
2022-10-11T06:53:58.188Z,73.17
2022-10-11T06:56:29.246Z,72.78
2022-10-11T06:59:04.278Z,73.20
2022-10-11T07:01:33.579Z,72.91
2022-10-11T07:04:03.283Z,72.84
2022-10-11T07:06:32.355Z,72.70
2022-10-11T07:09:01.503Z,72.60
2022-10-11T07:11:30.671Z,71.69
2022-10-11T07:14:04.473Z,71.26
2022-10-11T07:16:47.039Z,70.58
2022-10-11T07:19:15.811Z,70.53
2022-10-11T07:21:44.462Z,68.08
2022-10-11T07:24:13.212Z,65.63
2022-10-11T07:26:42.435Z,65.04
2022-10-11T07:29:12.152Z,64.66
2022-10-11T07:31:43.208Z,64.31
2022-10-11T07:34:12.328Z,63.06
2022-10-11T07:36:41.141Z,62.71
2022-10-11T07:39:10.356Z,62.61
2022-10-11T07:41:44.607Z,62.95
2022-10-11T07:44:15.094Z,62.35
2022-10-11T07:46:43.648Z,61.87
2022-10-11T07:49:12.218Z,61.82
2022-10-11T07:51:40.830Z,61.71
2022-10-11T07:54:09.451Z,60.43
2022-10-11T07:56:38.615Z,60.39
2022-10-11T07:59:08.476Z,60.97
2022-10-11T08:01:37.174Z,59.78
2022-10-11T08:04:06.182Z,59.71
2022-10-11T08:06:36.850Z,59.20
2022-10-11T08:09:06.660Z,59.06
2022-10-11T08:11:38.360Z,60.12
2022-10-11T08:14:09.470Z,60.30
2022-10-11T08:16:39.682Z,59.13
2022-10-11T08:19:08.496Z,58.17
2022-10-11T08:21:37.200Z,58.35
2022-10-11T08:24:06.858Z,57.83
2022-10-11T08:26:35.897Z,55.39
2022-10-11T08:29:05.438Z,55.13
2022-10-11T08:31:35.503Z,56.14
2022-10-11T08:34:04.200Z,55.71
2022-10-11T08:36:33.026Z,54.93
2022-10-11T08:39:01.768Z,54.36
2022-10-11T08:41:51.563Z,54.04
2022-10-11T08:44:52.128Z,52.51
2022-10-11T08:48:04.558Z,52.57
2022-10-11T08:50:33.206Z,52.88
2022-10-11T08:53:16.634Z,52.70
2022-10-11T08:55:51.134Z,50.88
2022-10-11T08:58:37.788Z,51.14
2022-10-11T09:01:14.771Z,51.08
2022-10-11T09:03:47.445Z,51.61
2022-10-11T09:06:37.256Z,50.48
2022-10-11T09:09:50.086Z,49.85
2022-10-11T09:13:08.202Z,49.21
2022-10-11T09:15:57.430Z,48.85
2022-10-11T09:18:41.337Z,48.83
2022-10-11T09:21:35.939Z,49.32
2022-10-11T09:24:25.900Z,48.08
2022-10-11T09:26:59.589Z,47.98
2022-10-11T09:29:52.501Z,46.69
2022-10-11T09:32:29.187Z,46.94
2022-10-11T09:35:11.442Z,47.65
2022-10-11T09:38:04.761Z,47.44
2022-10-11T09:40:53.348Z,45.41
2022-10-11T09:43:22.464Z,45.55
2022-10-11T09:45:52.333Z,45.82
2022-10-11T09:48:29.176Z,45.76
2022-10-11T09:51:14.588Z,44.64
2022-10-11T09:53:59.924Z,44.03
2022-10-11T09:56:32.026Z,43.80
2022-10-11T09:59:30.853Z,43.64
2022-10-11T10:02:15.224Z,44.04
2022-10-11T10:05:00.216Z,43.18
2022-10-11T10:07:32.163Z,43.50
2022-10-11T10:10:35.793Z,43.29
2022-10-11T10:13:27.705Z,43.13
2022-10-11T10:16:24.690Z,42.55
2022-10-11T10:19:44.982Z,40.86
2022-10-11T10:22:38.818Z,43.04
2022-10-11T10:25:57.046Z,39.89
2022-10-11T10:29:27.618Z,39.25
2022-10-11T10:32:13.778Z,37.82
2022-10-11T10:35:26.934Z,37.15
2022-10-11T10:38:29.359Z,37.84
2022-10-11T10:41:03.458Z,36.45
2022-10-11T10:43:40.120Z,36.54
2022-10-11T10:46:11.851Z,36.02
2022-10-11T10:52:44.093Z,35.42
2022-10-11T10:55:36.625Z,34.50
2022-10-11T10:58:18.803Z,34.29
2022-10-11T11:00:56.423Z,33.91
2022-10-11T11:03:44.505Z,34.06
2022-10-11T11:06:39.239Z,33.77
2022-10-11T11:09:41.678Z,32.89
2022-10-11T11:12:22.426Z,32.08
2022-10-11T11:15:10.536Z,32.25
2022-10-11T11:18:20.584Z,31.65
2022-10-11T11:21:10.819Z,31.88
2022-10-11T11:23:45.269Z,32.51
2022-10-11T11:26:35.507Z,31.27
2022-10-11T11:29:41.431Z,30.95
2022-10-11T11:32:24.947Z,30.59
2022-10-11T11:35:42.956Z,29.95
2022-10-11T11:38:38.421Z,29.40
2022-10-11T11:41:19.606Z,29.72
2022-10-11T11:44:06.521Z,29.36
2022-10-11T11:46:44.325Z,29.39
2022-10-11T11:49:29.686Z,29.67
2022-10-11T11:51:59.362Z,30.36
2022-10-11T11:54:58.983Z,30.46
2022-10-11T11:58:11.268Z,30.07
2022-10-11T12:01:18.664Z,29.99
2022-10-11T12:03:57.206Z,28.95
2022-10-11T12:06:32.217Z,27.48
2022-10-11T12:09:27.774Z,27.40
2022-10-11T12:12:19.752Z,27.87
2022-10-11T12:14:48.894Z,29.00
2022-10-11T12:17:24.090Z,29.39
2022-10-11T12:20:08.558Z,31.10
2022-10-11T12:23:01.460Z,30.69
2022-10-11T12:25:34.847Z,30.26
2022-10-11T12:28:37.433Z,30.57
2022-10-11T12:31:27.007Z,30.28
2022-10-11T12:34:01.857Z,30.57
2022-10-11T12:36:41.115Z,29.98
2022-10-11T12:39:18.877Z,29.49
2022-10-11T12:41:51.095Z,28.76
2022-10-11T12:44:20.151Z,28.33
2022-10-11T12:46:53.841Z,29.37
2022-10-11T12:49:34.231Z,29.31
2022-10-11T12:52:21.730Z,29.45
2022-10-11T12:55:11.097Z,30.53
2022-10-11T12:58:01.673Z,32.01
2022-10-11T13:00:52.143Z,31.97
2022-10-11T13:03:58.074Z,31.78
2022-10-11T13:07:03.196Z,32.05
2022-10-11T13:09:45.307Z,32.90
2022-10-11T13:12:21.699Z,33.14
2022-10-11T13:15:15.816Z,32.31
2022-10-11T13:17:48.930Z,31.78
2022-10-11T13:20:17.772Z,31.08
2022-10-11T13:22:53.657Z,31.13
2022-10-11T13:25:28.537Z,31.38
2022-10-11T13:27:59.860Z,30.83
2022-10-11T13:30:35.961Z,29.64
2022-10-11T13:33:21.769Z,28.62
2022-10-11T13:35:51.519Z,27.98
2022-10-11T13:38:28.295Z,27.98
2022-10-11T13:40:59.865Z,28.65
2022-10-11T13:43:31.202Z,28.69
2022-10-11T13:46:05.245Z,28.03
2022-10-11T13:48:41.946Z,27.36
2022-10-11T13:51:35.606Z,25.93
2022-10-11T13:54:13.524Z,27.17
2022-10-11T13:56:51.519Z,26.74
2022-10-11T13:59:24.092Z,26.88
2022-10-11T14:02:00.395Z,25.96
2022-10-11T14:04:40.780Z,25.05
2022-10-11T14:07:38.044Z,25.35
2022-10-11T14:10:07.358Z,26.18
2022-10-11T14:12:44.284Z,25.48
2022-10-11T14:15:31.189Z,25.53
2022-10-11T14:18:23.041Z,24.95
2022-10-11T14:20:51.758Z,24.93
2022-10-11T14:23:20.626Z,25.29
2022-10-11T14:25:55.506Z,25.76
2022-10-11T14:28:24.399Z,25.40
2022-10-11T14:30:53.243Z,25.61
2022-10-11T14:33:22.141Z,25.92
2022-10-11T14:35:50.912Z,26.92
2022-10-11T14:38:27.132Z,27.94
2022-10-11T14:41:01.276Z,29.56
2022-10-11T14:43:29.957Z,30.36
2022-10-11T14:45:59.567Z,31.32
2022-10-11T14:48:50.401Z,32.00
2022-10-11T14:51:28.261Z,33.22
2022-10-11T14:53:57.248Z,33.04
2022-10-11T14:56:26.185Z,34.60
2022-10-11T14:58:56.196Z,35.98
2022-10-11T15:01:40.116Z,36.70
2022-10-11T15:04:22.646Z,37.36
2022-10-11T15:06:56.837Z,37.62
2022-10-11T15:09:30.241Z,38.25
2022-10-11T15:11:59.000Z,38.26
2022-10-11T15:14:48.454Z,38.98
2022-10-11T15:17:38.409Z,39.99
2022-10-11T15:21:28.562Z,40.56
2022-10-11T15:24:36.316Z,40.49
2022-10-11T15:27:42.560Z,44.99
2022-10-11T15:31:31.492Z,47.49
2022-10-11T15:34:01.996Z,46.25
2022-10-11T15:36:31.901Z,45.83
2022-10-11T15:39:01.903Z,51.92
2022-10-11T15:41:36.474Z,56.37
2022-10-11T15:44:05.264Z,57.12
2022-10-11T15:46:33.942Z,56.98
2022-10-11T15:49:06.628Z,58.94
2022-10-11T15:51:37.952Z,56.75
2022-10-11T15:54:11.345Z,54.44
2022-10-11T15:56:40.113Z,57.62
2022-10-11T15:59:11.821Z,55.82
2022-10-11T16:04:54.938Z,56.71
2022-10-11T16:08:19.670Z,57.90
2022-10-11T16:14:06.810Z,58.55
2022-10-11T16:16:35.374Z,60.04
2022-10-11T16:19:03.958Z,59.94
2022-10-11T16:21:32.524Z,65.15
2022-10-11T16:24:01.234Z,68.86
2022-10-11T16:26:29.849Z,69.41
2022-10-11T16:28:58.523Z,69.66
2022-10-11T16:31:29.147Z,69.76
2022-10-11T16:33:57.961Z,70.71
2022-10-11T16:36:32.148Z,69.70
2022-10-11T16:39:05.706Z,67.07
2022-10-11T16:41:34.308Z,69.63
2022-10-11T16:44:04.288Z,70.81
2022-10-11T16:46:34.223Z,70.43
2022-10-11T16:49:03.680Z,68.91
2022-10-11T16:51:32.441Z,67.80
2022-10-11T16:54:02.059Z,69.37
2022-10-11T16:56:37.346Z,70.07
2022-10-11T16:59:11.371Z,70.69
2022-10-11T17:01:40.399Z,71.43
2022-10-11T17:04:11.248Z,71.70
2022-10-11T17:06:41.355Z,72.24
2022-10-11T17:09:10.829Z,72.73
2022-10-11T17:11:40.960Z,72.56
2022-10-11T17:14:12.151Z,72.54
2022-10-11T17:16:40.817Z,73.41
2022-10-11T17:19:12.235Z,73.87
2022-10-11T17:21:43.261Z,73.71
2022-10-11T17:24:11.908Z,73.43
2022-10-11T17:26:40.601Z,72.70
2022-10-11T17:29:15.330Z,73.31
2022-10-11T17:31:48.813Z,73.34
2022-10-11T17:34:18.493Z,73.57
2022-10-11T17:36:47.668Z,72.95
2022-10-11T17:39:22.862Z,73.31
2022-10-11T17:41:51.969Z,72.92
2022-10-11T17:44:22.062Z,72.82
2022-10-11T17:46:50.664Z,73.75
2022-10-11T17:49:21.813Z,74.00
2022-10-11T17:51:52.710Z,74.04
2022-10-11T17:54:21.291Z,74.40
2022-10-11T17:56:50.611Z,74.62
2022-10-11T17:59:21.608Z,74.09
2022-10-11T18:01:50.868Z,73.50
2022-10-11T18:04:21.761Z,74.71
2022-10-11T18:06:50.380Z,75.51
2022-10-11T18:09:19.909Z,75.21
2022-10-11T18:11:49.606Z,74.67
2022-10-11T18:14:18.484Z,74.83
2022-10-11T18:16:47.166Z,76.23
2022-10-11T18:19:15.869Z,76.17
2022-10-11T18:21:44.657Z,76.82
2022-10-11T18:24:16.582Z,77.34
2022-10-11T18:26:46.593Z,77.74
2022-10-11T18:29:15.701Z,77.26
2022-10-11T18:31:45.134Z,76.95
2022-10-11T18:34:16.102Z,76.32
2022-10-11T18:36:44.697Z,76.70
2022-10-11T18:39:15.472Z,76.81
2022-10-11T18:41:46.008Z,77.40
2022-10-11T18:44:15.949Z,77.07
2022-10-11T18:46:45.550Z,77.43
2022-10-11T18:49:14.793Z,77.85
2022-10-11T18:51:46.766Z,77.99
2022-10-11T18:54:20.238Z,77.95
2022-10-11T18:56:50.423Z,78.09
2022-10-11T18:59:20.388Z,78.56
2022-10-11T19:01:52.593Z,78.51
2022-10-11T19:04:21.702Z,78.59
2022-10-11T19:06:50.919Z,78.63
2022-10-11T19:09:23.334Z,78.83
2022-10-11T19:11:55.397Z,78.89
2022-10-11T19:14:28.788Z,78.50
2022-10-11T19:16:58.155Z,78.56
2022-10-11T19:19:29.833Z,78.58
2022-10-11T19:21:59.587Z,78.58
2022-10-11T19:24:30.160Z,78.30
2022-10-11T19:27:02.619Z,78.01
2022-10-11T19:29:32.610Z,78.85
2022-10-11T19:32:03.809Z,78.68
2022-10-11T19:34:33.331Z,77.08
2022-10-11T19:37:03.442Z,78.77
2022-10-11T19:39:32.398Z,78.56
2022-10-11T19:42:01.421Z,79.30
2022-10-11T19:44:31.195Z,79.52
2022-10-11T19:47:05.429Z,79.62
2022-10-11T19:49:36.687Z,79.50
2022-10-11T19:52:09.727Z,78.57
2022-10-11T19:54:39.602Z,78.14
2022-10-11T19:57:14.309Z,78.13
2022-10-11T19:59:42.996Z,78.79
2022-10-11T20:02:14.855Z,78.90
2022-10-11T20:04:52.360Z,79.42
2022-10-11T20:07:21.478Z,79.27
2022-10-11T20:09:50.249Z,79.04
2022-10-11T20:12:18.893Z,77.62
2022-10-11T20:14:47.476Z,78.65
2022-10-11T20:17:16.296Z,78.76
2022-10-11T20:19:44.948Z,78.98
2022-10-11T20:22:13.616Z,78.73
2022-10-11T20:24:42.195Z,77.01
2022-10-11T20:27:10.733Z,76.41
2022-10-11T20:29:39.280Z,78.56
2022-10-11T20:32:15.116Z,78.79
2022-10-11T20:34:43.720Z,79.15
2022-10-11T20:37:12.408Z,79.54
2022-10-11T20:39:40.984Z,79.65
2022-10-11T20:42:09.514Z,79.68
2022-10-11T20:44:38.073Z,79.73
2022-10-11T20:47:06.710Z,79.88
2022-10-11T20:49:35.319Z,79.62
2022-10-11T20:52:03.933Z,79.54
2022-10-11T20:54:34.397Z,79.02
2022-10-11T20:57:03.256Z,78.80
2022-10-11T20:59:31.838Z,79.16
2022-10-11T21:02:00.362Z,78.95
2022-10-11T21:04:29.226Z,78.93
2022-10-11T21:06:58.217Z,79.63
2022-10-11T21:09:26.753Z,79.73
2022-10-11T21:11:56.601Z,80.07
2022-10-11T21:14:25.164Z,80.09
2022-10-11T21:16:53.745Z,80.06
2022-10-11T21:19:22.394Z,80.13
2022-10-11T21:21:53.664Z,79.67
2022-10-11T21:24:22.781Z,80.54
2022-10-11T21:26:51.397Z,80.33
2022-10-11T21:29:20.005Z,80.28
2022-10-11T21:31:48.731Z,80.45
2022-10-11T21:34:17.389Z,80.96
2022-10-11T21:36:45.939Z,81.15
2022-10-11T21:39:14.569Z,81.36
2022-10-11T21:41:43.063Z,81.37
2022-10-11T21:44:11.664Z,81.35
2022-10-11T21:47:06.645Z,81.69
2022-10-11T21:49:29.304Z,81.47
2022-10-11T21:51:57.983Z,80.32
2022-10-11T21:54:26.682Z,79.99
2022-10-11T21:56:55.276Z,79.77
2022-10-11T21:59:23.790Z,78.71
2022-10-11T22:01:52.436Z,78.15
2022-10-11T22:04:21.051Z,78.12
2022-10-11T22:06:49.612Z,78.00
2022-10-11T22:09:18.118Z,79.78
2022-10-11T22:11:46.654Z,80.10
2022-10-11T22:14:15.728Z,78.41
2022-10-11T22:16:44.247Z,77.07
2022-10-11T22:19:12.801Z,76.92
2022-10-11T22:21:44.861Z,77.18
2022-10-11T22:24:13.930Z,77.36
2022-10-11T22:26:42.488Z,77.63
2022-10-11T22:29:11.163Z,77.79
2022-10-11T22:31:39.730Z,79.55
2022-10-11T22:34:08.363Z,79.93
2022-10-11T22:36:36.877Z,78.83
2022-10-11T22:39:08.203Z,78.69
2022-10-11T22:41:37.920Z,79.35
2022-10-11T22:44:06.687Z,79.43
2022-10-11T22:46:35.256Z,79.14
2022-10-11T22:49:03.807Z,78.57
2022-10-11T22:51:32.353Z,78.48
2022-10-11T22:54:00.972Z,78.64
2022-10-11T22:56:29.551Z,78.81
2022-10-11T22:58:59.672Z,80.05
2022-10-11T23:01:28.191Z,81.11
2022-10-11T23:03:56.833Z,82.19
2022-10-11T23:06:25.438Z,82.22
2022-10-11T23:08:54.075Z,82.10
2022-10-11T23:11:22.654Z,82.48
2022-10-11T23:13:51.261Z,81.33
2022-10-11T23:16:19.984Z,81.49
2022-10-11T23:18:48.515Z,83.37
2022-10-11T23:21:17.060Z,84.50
2022-10-11T23:23:45.759Z,84.98
2022-10-11T23:26:17.215Z,85.31
2022-10-11T23:28:46.012Z,85.71
2022-10-11T23:31:18.701Z,86.11
2022-10-11T23:33:48.387Z,86.09
2022-10-11T23:36:20.148Z,84.80
2022-10-11T23:38:58.339Z,84.54
2022-10-11T23:41:29.485Z,84.01
2022-10-11T23:43:58.773Z,85.78
2022-10-11T23:46:27.475Z,88.59
2022-10-11T23:48:55.932Z,88.81
2022-10-11T23:51:24.415Z,88.76
2022-10-11T23:53:53.169Z,86.58
2022-10-11T23:56:21.728Z,85.57
2022-10-11T23:58:50.435Z,88.52
